createdAt,value
2022-08-07T00:00:49.888Z,97952.59
2022-08-07T00:03:37.179Z,97954.56
2022-08-07T00:06:33.281Z,97957.47
2022-08-07T00:09:22.715Z,97957.91
2022-08-07T00:12:10.723Z,97960.81
2022-08-07T00:14:57.744Z,97959.66
2022-08-07T00:17:44.524Z,97955.81
2022-08-07T00:20:34.302Z,97962.16
2022-08-07T00:23:21.135Z,97956.47
2022-08-07T00:26:18.853Z,97967.59
2022-08-07T00:29:15.443Z,97964.81
2022-08-07T00:32:01.908Z,97957.94
2022-08-07T00:34:49.362Z,97958.66
2022-08-07T00:37:47.710Z,97952.16
2022-08-07T00:40:39.150Z,97952.81
2022-08-07T00:44:01.274Z,97948.41
2022-08-07T00:46:32.969Z,97945.03
2022-08-07T00:50:16.774Z,97950.19
2022-08-07T00:52:24.920Z,97943.94
2022-08-07T00:55:10.848Z,97948.06
2022-08-07T00:57:56.761Z,97965.28
2022-08-07T01:00:53.757Z,97960.63
2022-08-07T01:03:56.981Z,97966.41
2022-08-07T01:06:46.122Z,97960.13
2022-08-07T01:10:04.538Z,97965.91
2022-08-07T01:12:53.074Z,97966.09
2022-08-07T01:16:03.136Z,97961.47
2022-08-07T01:18:46.351Z,97954.41
2022-08-07T01:21:33.066Z,97951.81
2022-08-07T01:24:23.659Z,97944.81
2022-08-07T01:27:19.697Z,97941.25
2022-08-07T01:30:07.233Z,97952.31
2022-08-07T01:32:56.695Z,97954.19
2022-08-07T01:35:53.409Z,97958.06
2022-08-07T01:38:40.504Z,97950.97
2022-08-07T01:41:38.435Z,97952.44
2022-08-07T01:44:24.507Z,97949.19
2022-08-07T01:47:14.404Z,97955.56
2022-08-07T01:50:17.094Z,97959.25
2022-08-07T01:53:21.942Z,97955.38
2022-08-07T01:56:34.335Z,97954.19
2022-08-07T01:59:33.936Z,97962.59
2022-08-07T02:03:12.462Z,97953.44
2022-08-07T02:06:08.983Z,97954.31
2022-08-07T02:09:12.104Z,97938.66
2022-08-07T02:12:29.182Z,97942.56
2022-08-07T02:15:22.894Z,97943.59
2022-08-07T02:18:14.095Z,97943.81
2022-08-07T02:21:06.203Z,97936.50
2022-08-07T02:23:53.335Z,97939.00
2022-08-07T02:26:40.465Z,97937.38
2022-08-07T02:29:27.646Z,97929.84
2022-08-07T02:32:18.868Z,97930.06
2022-08-07T02:35:10.871Z,97928.06
2022-08-07T02:38:00.348Z,97928.22
2022-08-07T02:40:50.449Z,97935.81
2022-08-07T02:43:43.318Z,97937.88
2022-08-07T02:46:38.070Z,97932.19
2022-08-07T02:49:59.006Z,97935.25
2022-08-07T02:53:03.460Z,97930.63
2022-08-07T02:56:04.025Z,97923.31
2022-08-07T02:58:55.396Z,97929.25
2022-08-07T03:01:47.313Z,97916.41
2022-08-07T03:04:41.026Z,97920.31
2022-08-07T03:07:43.102Z,97924.19
2022-08-07T03:10:35.990Z,97920.97
2022-08-07T03:13:27.349Z,97925.66
2022-08-07T03:16:14.571Z,97923.41
2022-08-07T03:19:01.736Z,97924.28
2022-08-07T03:21:50.880Z,97922.88
2022-08-07T03:24:37.742Z,97931.25
2022-08-07T03:27:30.849Z,97929.63
2022-08-07T03:30:33.861Z,97940.66
2022-08-07T03:33:20.717Z,97927.00
2022-08-07T03:36:08.501Z,97924.78
2022-08-07T03:38:57.848Z,97922.56
2022-08-07T03:41:53.309Z,97919.94
2022-08-07T03:44:40.044Z,97915.06
2022-08-07T03:47:29.654Z,97925.06
2022-08-07T03:50:35.054Z,97925.47
2022-08-07T03:54:00.564Z,97921.63
2022-08-07T03:56:33.472Z,97921.81
2022-08-07T03:59:22.511Z,97923.69
2022-08-07T04:02:09.968Z,97923.69
2022-08-07T04:04:55.431Z,97920.41
2022-08-07T04:07:46.844Z,97924.09
2022-08-07T04:10:38.727Z,97929.38
2022-08-07T04:13:27.701Z,97922.03
2022-08-07T04:16:14.344Z,97919.56
2022-08-07T04:19:16.434Z,97930.44
2022-08-07T04:22:13.340Z,97932.50
2022-08-07T04:25:03.052Z,97939.31
2022-08-07T04:27:59.464Z,97934.13
2022-08-07T04:30:55.526Z,97938.22
2022-08-07T04:33:55.075Z,97940.56
2022-08-07T04:36:43.508Z,97941.88
2022-08-07T04:39:36.033Z,97943.41
2022-08-07T04:42:28.728Z,97940.78
2022-08-07T04:45:15.051Z,97941.28
2022-08-07T04:48:10.219Z,97949.03
2022-08-07T04:51:05.882Z,97950.22
2022-08-07T04:54:29.876Z,97960.16
2022-08-07T04:58:11.835Z,97940.59
2022-08-07T05:00:40.930Z,97943.66
2022-08-07T05:04:06.785Z,97948.72
2022-08-07T05:07:09.704Z,97949.44
2022-08-07T05:10:25.004Z,97953.28
2022-08-07T05:14:53.043Z,97950.00
2022-08-07T05:16:30.403Z,97949.34
2022-08-07T05:19:32.561Z,97954.94
2022-08-07T05:22:26.593Z,97945.78
2022-08-07T05:25:25.834Z,97953.69
2022-08-07T05:28:26.774Z,97949.63
2022-08-07T05:31:16.838Z,97953.84
2022-08-07T05:34:11.122Z,97954.47
2022-08-07T05:36:58.681Z,97959.75
2022-08-07T05:40:05.547Z,97961.59
2022-08-07T05:42:56.610Z,97963.78
2022-08-07T05:45:47.354Z,97946.69
2022-08-07T05:48:58.032Z,97963.97
2022-08-07T05:51:47.082Z,97960.97
2022-08-07T05:54:44.107Z,97964.47
2022-08-07T05:57:42.268Z,97961.84
2022-08-07T06:00:32.126Z,97969.94
2022-08-07T06:03:23.749Z,97962.09
2022-08-07T06:06:12.322Z,97967.09
2022-08-07T06:09:06.891Z,97964.91
2022-08-07T06:11:57.863Z,97969.72
2022-08-07T06:14:49.410Z,97972.84
2022-08-07T06:17:38.509Z,97972.16
2022-08-07T06:20:49.873Z,97972.06
2022-08-07T06:24:36.992Z,97966.22
2022-08-07T06:26:41.828Z,97960.50
2022-08-07T06:29:29.952Z,97965.34
2022-08-07T06:32:16.133Z,97963.63
2022-08-07T06:35:02.936Z,97953.69
2022-08-07T06:38:05.162Z,97951.38
2022-08-07T06:40:56.406Z,97952.63
2022-08-07T06:43:59.197Z,97952.69
2022-08-07T06:46:53.528Z,97953.50
2022-08-07T06:49:58.439Z,97953.47
2022-08-07T06:52:55.952Z,97950.25
2022-08-07T06:55:53.877Z,97948.75
2022-08-07T07:00:12.200Z,97955.63
2022-08-07T07:02:03.346Z,97948.59
2022-08-07T07:04:54.935Z,97947.75
2022-08-07T07:07:59.427Z,97949.63
2022-08-07T07:10:56.576Z,97947.31
2022-08-07T07:13:58.424Z,97933.47
2022-08-07T07:16:53.507Z,97937.06
2022-08-07T07:19:57.605Z,97923.13
2022-08-07T07:24:06.298Z,97926.09
2022-08-07T07:26:35.369Z,97919.72
2022-08-07T07:29:56.280Z,97914.06
2022-08-07T07:32:14.032Z,97917.03
2022-08-07T07:35:03.920Z,97917.28
2022-08-07T07:37:59.390Z,97914.03
2022-08-07T07:40:51.143Z,97908.94
2022-08-07T07:44:14.568Z,97907.88
2022-08-07T07:46:57.217Z,97901.69
2022-08-07T07:50:35.274Z,97897.94
2022-08-07T07:53:00.807Z,97892.28
2022-08-07T07:55:57.797Z,97901.69
2022-08-07T07:58:47.428Z,97904.66
2022-08-07T08:02:03.513Z,97897.41
2022-08-07T08:04:50.450Z,97897.38
2022-08-07T08:07:42.473Z,97890.13
2022-08-07T08:10:45.341Z,97890.94
2022-08-07T08:13:54.458Z,97891.44
2022-08-07T08:29:08.258Z,97882.84
2022-08-07T08:32:17.200Z,97891.44
2022-08-07T08:35:28.505Z,97886.03
2022-08-07T08:38:17.229Z,97889.81
2022-08-07T08:41:13.316Z,97885.75
2022-08-07T08:45:13.882Z,97889.00
2022-08-07T08:52:30.473Z,97882.50
2022-08-07T08:55:55.310Z,97870.66
2022-08-07T08:59:48.247Z,97870.06
2022-08-07T09:02:55.313Z,97872.72
2022-08-07T09:06:21.295Z,97876.19
2022-08-07T09:09:43.275Z,97872.88
2022-08-07T09:17:59.386Z,97871.50
2022-08-07T09:25:43.141Z,97862.59
2022-08-07T09:30:05.705Z,97852.28
2022-08-07T09:33:05.375Z,97858.66
2022-08-07T09:36:04.083Z,97856.69
2022-08-07T09:42:56.771Z,97833.22
2022-08-07T09:47:25.742Z,97836.13
2022-08-07T09:50:18.949Z,97836.25
2022-08-07T09:53:07.519Z,97841.63
2022-08-07T09:56:37.697Z,97834.66
2022-08-07T09:59:46.145Z,97836.78
2022-08-07T10:03:08.477Z,97821.03
2022-08-07T10:06:42.575Z,97833.09
2022-08-07T10:10:21.429Z,97821.09
2022-08-07T10:14:01.555Z,97816.50
2022-08-07T10:16:47.720Z,97807.19
2022-08-07T10:19:39.426Z,97802.81
2022-08-07T10:24:06.263Z,97804.44
2022-08-07T10:27:47.526Z,97798.22
2022-08-07T10:31:11.319Z,97789.94
2022-08-07T10:34:15.365Z,97794.19
2022-08-07T10:38:00.009Z,97790.03
2022-08-07T10:40:42.022Z,97786.00
2022-08-07T10:43:34.372Z,97788.72
2022-08-07T10:51:57.796Z,97777.66
2022-08-07T10:54:53.245Z,97770.56
2022-08-07T10:58:17.761Z,97769.53
2022-08-07T11:01:51.617Z,97767.66
2022-08-07T11:05:10.738Z,97761.88
2022-08-07T11:08:33.741Z,97750.50
2022-08-07T11:12:14.480Z,97758.88
2022-08-07T11:15:20.331Z,97759.56
2022-08-07T11:18:42.543Z,97752.03
2022-08-07T11:26:06.381Z,97755.00
2022-08-07T11:29:05.622Z,97749.28
2022-08-07T11:32:10.678Z,97755.91
2022-08-07T11:35:00.047Z,97743.69
2022-08-07T11:38:12.458Z,97752.78
2022-08-07T11:41:03.280Z,97729.06
2022-08-07T11:44:11.932Z,97741.84
2022-08-07T11:47:39.163Z,97735.72
2022-08-07T11:50:57.821Z,97730.16
2022-08-07T11:54:01.655Z,97738.09
2022-08-07T11:57:57.722Z,97734.59
2022-08-07T12:00:39.625Z,97725.41
2022-08-07T12:03:45.341Z,97724.19
2022-08-07T12:07:00.694Z,97718.53
2022-08-07T12:10:02.201Z,97720.03
2022-08-07T12:13:02.251Z,97718.09
2022-08-07T12:16:48.972Z,97721.91
2022-08-07T12:20:04.727Z,97724.03
2022-08-07T12:24:07.202Z,97715.63
2022-08-07T12:27:18.504Z,97708.22
2022-08-07T12:30:13.968Z,97709.81
2022-08-07T12:38:09.279Z,97701.53
2022-08-07T12:40:47.581Z,97696.72
2022-08-07T12:44:02.676Z,97697.75
2022-08-07T12:47:00.516Z,97688.44
2022-08-07T12:50:04.477Z,97690.59
2022-08-07T12:52:59.800Z,97686.59
2022-08-07T12:56:29.330Z,97684.09
2022-08-07T13:03:08.261Z,97681.44
2022-08-07T13:06:21.546Z,97680.31
2022-08-07T13:10:19.678Z,97672.78
2022-08-07T13:12:53.943Z,97686.47
2022-08-07T13:16:10.755Z,97676.75
2022-08-07T13:19:46.131Z,97669.03
2022-08-07T13:22:52.493Z,97671.38
2022-08-07T13:25:50.829Z,97670.81
2022-08-07T13:28:58.177Z,97662.00
2022-08-07T13:31:57.905Z,97666.22
2022-08-07T13:35:00.593Z,97651.56
2022-08-07T13:38:18.784Z,97655.59
2022-08-07T13:41:42.372Z,97655.47
2022-08-07T13:44:37.320Z,97643.78
2022-08-07T13:47:28.020Z,97654.16
2022-08-07T13:50:44.446Z,97641.66
2022-08-07T13:54:00.698Z,97642.91
2022-08-07T13:56:55.801Z,97638.00
2022-08-07T13:59:57.620Z,97644.56
2022-08-07T14:02:51.056Z,97636.34
2022-08-07T14:05:40.317Z,97634.78
2022-08-07T14:08:27.904Z,97631.56
2022-08-07T14:11:17.516Z,97619.91
2022-08-07T14:14:11.563Z,97623.16
2022-08-07T14:22:03.294Z,97621.09
2022-08-07T14:25:01.981Z,97621.63
2022-08-07T14:28:32.030Z,97619.13
2022-08-07T14:31:06.877Z,97609.25
2022-08-07T14:33:55.389Z,97612.56
2022-08-07T14:36:44.473Z,97609.34
2022-08-07T14:40:26.737Z,97609.81
2022-08-07T14:43:55.128Z,97605.00
2022-08-07T14:47:36.945Z,97602.19
2022-08-07T14:50:24.543Z,97604.41
2022-08-07T14:53:11.165Z,97593.34
2022-08-07T14:56:04.759Z,97601.84
2022-08-07T15:00:05.353Z,97600.41
2022-08-07T15:04:10.515Z,97599.22
2022-08-07T15:07:47.696Z,97592.69
2022-08-07T15:10:58.848Z,97605.72
2022-08-07T15:14:22.411Z,97589.59
2022-08-07T15:17:20.565Z,97599.31
2022-08-07T15:20:55.291Z,97604.75
2022-08-07T15:25:14.899Z,97588.63
2022-08-07T15:28:31.011Z,97590.41
2022-08-07T15:32:01.904Z,97583.78
2022-08-07T15:34:55.442Z,97582.00
2022-08-07T15:38:04.504Z,97583.94
2022-08-07T15:41:00.258Z,97580.72
2022-08-07T15:43:59.791Z,97582.31
2022-08-07T15:46:52.639Z,97573.38
2022-08-07T15:50:04.930Z,97576.75
2022-08-07T15:53:51.877Z,97577.69
2022-08-07T16:06:35.333Z,97565.28
2022-08-07T16:09:42.100Z,97565.22
2022-08-07T16:13:17.659Z,97561.06
2022-08-07T16:21:57.057Z,97551.84
2022-08-07T16:24:59.556Z,97540.66
2022-08-07T16:32:46.578Z,97543.50
2022-08-07T16:35:52.086Z,97549.56
2022-08-07T16:44:06.280Z,97544.78
2022-08-07T16:52:01.596Z,97539.38
2022-08-07T16:59:17.435Z,97549.34
2022-08-07T17:09:13.904Z,97564.94
2022-08-07T17:12:35.899Z,97555.34
2022-08-07T17:15:55.809Z,97563.59
2022-08-07T17:18:57.172Z,97569.94
2022-08-07T17:21:51.711Z,97563.84
2022-08-07T17:24:47.072Z,97565.88
2022-08-07T17:28:00.539Z,97576.16
2022-08-07T17:31:15.655Z,97569.69
2022-08-07T17:35:33.093Z,97565.81
2022-08-07T17:38:33.349Z,97569.56
2022-08-07T17:42:04.914Z,97570.28
2022-08-07T17:44:56.909Z,97563.19
2022-08-07T17:47:54.308Z,97580.94
2022-08-07T17:51:49.250Z,97578.41
2022-08-07T17:54:53.885Z,97592.66
2022-08-07T17:57:59.083Z,97579.47
2022-08-07T18:00:52.860Z,97581.09
2022-08-07T18:04:08.083Z,97585.28
2022-08-07T18:07:22.903Z,97590.28
2022-08-07T18:10:32.873Z,97599.88
2022-08-07T18:13:41.535Z,97592.66
2022-08-07T18:16:57.387Z,97597.09
2022-08-07T18:21:07.142Z,97599.06
2022-08-07T18:23:06.100Z,97597.94
2022-08-07T18:26:15.104Z,97594.00
2022-08-07T18:29:05.877Z,97595.19
2022-08-07T18:32:23.159Z,97597.75
2022-08-07T18:35:26.429Z,97600.03
2022-08-07T18:38:55.408Z,97605.31
2022-08-07T18:42:04.198Z,97612.75
2022-08-07T18:45:43.995Z,97619.09
2022-08-07T18:50:04.765Z,97621.16
2022-08-07T18:52:33.666Z,97627.47
2022-08-07T18:55:43.328Z,97635.69
2022-08-07T18:59:47.521Z,97638.09
2022-08-07T19:02:36.849Z,97641.19
2022-08-07T19:06:02.167Z,97643.50
2022-08-07T19:09:00.246Z,97648.78
2022-08-07T19:12:05.125Z,97652.41
2022-08-07T19:16:02.612Z,97662.75
2022-08-07T19:18:46.620Z,97665.59
2022-08-07T19:22:15.029Z,97664.13
2022-08-07T19:25:06.376Z,97664.75
2022-08-07T19:29:03.358Z,97659.50
2022-08-07T19:31:43.626Z,97663.94
2022-08-07T19:34:32.724Z,97657.53
2022-08-07T19:37:24.005Z,97668.09
2022-08-07T19:40:38.183Z,97666.25
2022-08-07T19:43:51.965Z,97669.25
2022-08-07T19:46:55.880Z,97665.00
2022-08-07T19:49:57.990Z,97673.91
2022-08-07T19:52:58.604Z,97670.16
2022-08-07T19:55:57.563Z,97677.44
2022-08-07T19:58:54.279Z,97677.22
2022-08-07T20:01:56.219Z,97678.81
2022-08-07T20:04:49.427Z,97679.38
2022-08-07T20:07:48.173Z,97683.94
2022-08-07T20:10:54.558Z,97689.31
2022-08-07T20:14:03.274Z,97685.03
2022-08-07T20:16:56.717Z,97689.56
2022-08-07T20:19:49.425Z,97682.88
2022-08-07T20:22:45.721Z,97684.19
2022-08-07T20:25:33.456Z,97679.88
2022-08-07T20:28:30.894Z,97681.50
2022-08-07T20:31:21.120Z,97676.63
2022-08-07T20:34:10.325Z,97683.59
2022-08-07T20:37:01.167Z,97678.19
2022-08-07T20:40:02.677Z,97678.75
2022-08-07T20:42:57.978Z,97687.28
2022-08-07T20:46:26.208Z,97684.59
2022-08-07T20:49:54.353Z,97689.38
2022-08-07T20:52:13.851Z,97699.00
2022-08-07T20:55:05.719Z,97697.59
2022-08-07T20:58:04.164Z,97690.06
2022-08-07T21:01:19.809Z,97692.69
2022-08-07T21:04:22.234Z,97695.06
2022-08-07T21:07:14.382Z,97703.09
2022-08-07T21:10:14.261Z,97693.94
2022-08-07T21:13:14.803Z,97699.28
2022-08-07T21:16:05.332Z,97697.63
2022-08-07T21:18:54.982Z,97701.06
2022-08-07T21:21:49.162Z,97701.28
2022-08-07T21:24:58.490Z,97700.13
2022-08-07T21:28:02.539Z,97697.69
2022-08-07T21:31:00.548Z,97694.44
2022-08-07T21:34:10.331Z,97704.22
2022-08-07T21:37:58.635Z,97699.09
2022-08-07T21:40:48.269Z,97704.66
2022-08-07T21:43:55.642Z,97706.50
2022-08-07T21:47:07.530Z,97706.13
2022-08-07T21:50:05.279Z,97712.72
2022-08-07T21:53:13.181Z,97711.88
2022-08-07T21:56:37.845Z,97713.69
2022-08-07T22:03:05.569Z,97712.22
2022-08-07T22:06:07.945Z,97710.28
2022-08-07T22:09:25.476Z,97709.75
2022-08-07T22:12:19.915Z,97711.28
2022-08-07T22:16:41.891Z,97713.13
2022-08-07T22:18:59.828Z,97715.13
2022-08-07T22:22:10.979Z,97716.69
2022-08-07T22:25:13.049Z,97709.66
2022-08-07T22:28:31.217Z,97706.94
2022-08-07T22:31:58.927Z,97710.84
2022-08-07T22:34:56.740Z,97714.00
2022-08-07T22:38:05.420Z,97717.66
2022-08-07T22:41:29.125Z,97711.47
2022-08-07T22:44:38.503Z,97709.22
2022-08-07T22:47:57.065Z,97711.25
2022-08-07T22:51:36.804Z,97709.22
2022-08-07T22:54:48.937Z,97714.75
2022-08-07T22:58:12.912Z,97713.59
2022-08-07T23:01:15.391Z,97717.81
2022-08-07T23:04:57.873Z,97722.59
2022-08-07T23:08:23.827Z,97720.41
2022-08-07T23:11:48.353Z,97726.88
2022-08-07T23:14:56.721Z,97725.44
2022-08-07T23:18:12.934Z,97734.16
2022-08-07T23:21:21.980Z,97731.53
2022-08-07T23:24:27.804Z,97737.00
2022-08-07T23:27:33.618Z,97742.00
2022-08-07T23:30:37.428Z,97737.16
2022-08-07T23:34:24.225Z,97731.72
2022-08-07T23:38:01.320Z,97736.50
2022-08-07T23:40:57.121Z,97732.13
2022-08-07T23:44:00.460Z,97735.19
2022-08-07T23:47:12.466Z,97729.66
2022-08-07T23:50:16.996Z,97726.22
2022-08-07T23:53:08.716Z,97724.06
2022-08-07T23:56:14.851Z,97728.78
